Air Navigation Services of Czech Republic  
Last data update:  20.02.2017 21:03:37 UTC Česká verze
   METEO Page displayed:  20.02.2017 21:04:35 UTC  
help
METAR EDDB 202050Z 24016KT 9999 BKN009 09/08 Q1005 TEMPO 23015G25KT=
METAR EDDC 202050Z 25014G25KT 220V290 9999 OVC017 08/06 Q1009 NOSIG=
METAR EDDE 202050Z 24017KT 9999 BKN012 08/07 Q1011 TEMPO 23015G25KT=
METAR EDDF 202050Z 21014KT 9999 SCT015 OVC018 09/07 Q1016 BECMG OVC014=
METAR EDDM 202050Z 25015KT 9999 -RA FEW025 SCT035 OVC050 07/04 Q1018 TEMPO 4000 RADZ=
METAR EDDN 202050Z 23007KT 200V260 9999 -DZ FEW009 BKN012 07/06 Q1017 TEMPO 4000=
METAR EDDP 202050Z 24021KT 9999 SCT013 BKN033 08/07 Q1010 TEMPO 24020G30KT BKN013=
METAR COR EDDT 202050Z 25017G28KT 9999 OVC008 09/08 Q1005 NOSIG=
METAR EDQM 201850Z 23016KT 6000 DZ BKN007 OVC011 04/03 Q1013=
METAR EPBY 202030Z 25018KT 9000 -RA OVC004 06/06 Q1000 =
METAR EPGD 202030Z 24015KT 9000 -RA BKN005 06/06 Q0994 =
METAR EPKK 202030Z 22009KT 9999 BKN038 04/00 Q1011 =
METAR EPKT 202030Z 22016KT 8000 -RA OVC029 04/01 Q1010 =
METAR EPLL 202030Z 22012G22KT 190V250 4300 -RA BR SCT009 SCT012 OVC016 04/03 Q1006 =
METAR EPPO 202030Z 24016KT 9999 -RA OVC006 07/06 Q1003 R10/29//// =
METAR EPRZ 202030Z 20019KT 9999 FEW040 01/M01 Q1011 =
METAR EPWA 202030Z 23013KT 200V260 9999 -RA SCT017 BKN023 05/03 Q1004 BECMG BKN015=
METAR EPWR 202030Z 23008KT 8000 -RA BKN024 06/04 Q1008 =
METAR LHBP 202100Z VRB03KT 4000 FZBCFG BR NSC M01/M01 Q1019 BECMG 2000 BR=
METAR LHSM 201545Z 09003KT CAVOK 07/01 Q1021 NOSIG=
METAR LKCV 202000Z 24005KT 9999 -RA BKN035 OVC060 06/03 Q1013 NOSIG=
METAR LKKB 202000Z 22015KT 9999 -RA SCT015 BKN030 OVC035 06/05 Q1012 NOSIG =
METAR LKKU NIL
METAR LKKV 202100Z 25011G21KT 3300 -RA BR OVC005 04/04 Q1012 R29///////=
METAR LKLN 202000Z AUTO 24010KT 9999 -RA OVC019 06/05 Q1015=
METAR LKMT 202100Z 21016KT 9999 -RA BKN034 OVC042 06/02 Q1012 NOSIG=
METAR LKNA 202000Z 23009KT 9999 -RA SCT031 BKN060 03/01 Q1014 NOSIG=
METAR LKPD 202000Z 25010KT 9999 -RA SCT030 OVC060 06/03 Q1013 NOSIG =
METAR LKPR 202100Z 24023G33KT 9999 FEW009 BKN032 06/04 Q1011 NOSIG=
METAR LKTB 202100Z 21005KT 9999 -RA BKN040 OVC045 03/02 Q1014 NOSIG RMK REG QNH 1009=
METAR LKVO NIL
METAR LOWI 202050Z VRB01KT 9999 FEW060 BKN120 04/M01 Q1021 NOSIG=
METAR LOWL 202050Z AUTO 25008KT 9999 -SHRA SCT040 BKN044 07/01 Q1018 NOSIG=
METAR LOWS 202050Z 15008KT 9999 FEW040 OVC050 05/01 Q1019 NOSIG=
METAR LOWW 202050Z 19009KT CAVOK 04/M00 Q1017 NOSIG=
METAR LZIB 202100Z 22008KT 9999 FEW048 BKN054 04/01 Q1017 R88/CLRD//=
METAR LZKZ 202100Z 19008KT 1500 BR OVC001 M00/M00 Q1017=
METAR LZPP 202030Z AUTO VRB01KT 1700 BR BKN041/// OVC059/// 01/01 Q1017=
METAR LZSL 202030Z 20003KT 8000 SCT011 OVC015 02/00 Q1017=
METAR LZTT 202100Z 23015KT 9999 SCT033 02/M02 Q1011=
METAR LZZI 202030Z 29008KT 4100 BR OVC011 02/00 Q1015=